Time;durP1;ratioP1;P1;durP2;ratioP2;P2;SDS_P1;SDS_P2;PMS_P1;PMS_P2;Temp;Humidity;BMP_temperature;BMP_pressure;BME280_temperature;BME280_humidity;BME280_pressure;Samples;Min_cycle;Max_cycle;Signal;HPM_P1;HPM_P2
2021/03/17 00:00:39;120012.00;0.40;208.10;0.00;0.00;0.62;;;;;12.60;1.00;;;;;;2268181;61;1767;-86
2021/03/17 00:03:06;80608.00;0.27;140.09;0.00;0.00;0.62;;;;;12.50;1.00;;;;;;2268099;61;1409;-87
2021/03/17 00:05:35;42860.00;0.14;74.84;0.00;0.00;0.62;;;;;12.40;1.00;;;;;;2268074;61;1214;-87
2021/03/17 00:08:02;134760.00;0.45;233.54;0.00;0.00;0.62;;;;;12.20;1.00;;;;;;2268091;61;1191;-87
2021/03/17 00:10:32;185823.00;0.62;321.52;0.00;0.00;0.62;;;;;12.40;1.00;;;;;;2259593;61;1088;-87
2021/03/17 00:12:59;94008.00;0.31;163.23;0.00;0.00;0.62;;;;;12.50;1.00;;;;;;2259579;61;2002;-86
2021/03/17 00:15:30;64953.00;0.22;113.04;0.00;0.00;0.62;;;;;12.50;1.00;;;;;;2259537;61;1017;-86
2021/03/17 00:17:56;137661.00;0.46;238.54;0.00;0.00;0.62;;;;;12.70;1.00;;;;;;2259719;61;1099;-87
2021/03/17 00:20:24;106679.00;0.36;185.10;0.00;0.00;0.62;;;;;12.80;1.00;;;;;;2259741;61;1013;-86
2021/03/17 00:22:51;81550.00;0.27;141.71;0.00;0.00;0.62;;;;;12.60;1.00;;;;;;2259680;61;1405;-86
2021/03/17 00:25:19;49135.00;0.16;85.69;0.00;0.00;0.62;;;;;12.50;1.00;;;;;;2259717;61;1104;-87
2021/03/17 00:27:45;68404.00;0.23;119.00;0.00;0.00;0.62;;;;;12.80;1.00;;;;;;2261286;61;1116;-87
2021/03/17 00:30:13;105985.00;0.35;183.90;0.00;0.00;0.62;;;;;13.00;1.00;;;;;;2268197;61;1146;-88
2021/03/17 00:32:40;85975.00;0.29;149.36;0.00;0.00;0.62;;;;;13.30;1.00;;;;;;2268131;61;1915;-88
2021/03/17 00:35:08;65089.00;0.22;113.27;0.00;0.00;0.62;;;;;13.50;1.00;;;;;;2268123;61;1143;-88
2021/03/17 00:37:35;51881.00;0.17;90.44;0.00;0.00;0.62;;;;;13.50;1.00;;;;;;2268135;61;999;-88
2021/03/17 00:40:01;41695.00;0.14;72.82;0.00;0.00;0.62;;;;;13.70;1.00;;;;;;2268099;61;1084;-88
2021/03/17 00:42:28;60051.00;0.20;104.56;0.00;0.00;0.62;;;;;13.50;1.00;;;;;;2268079;61;1292;-89
2021/03/17 00:44:55;33906.00;0.11;59.34;0.00;0.00;0.62;;;;;13.10;1.00;;;;;;2268093;61;1068;-88
2021/03/17 00:47:22;99973.00;0.33;173.53;0.00;0.00;0.62;;;;;12.80;1.00;;;;;;2268354;61;914;-88
2021/03/17 00:49:49;58044.00;0.19;101.10;0.00;0.00;0.62;;;;;13.10;1.00;;;;;;2268760;61;1092;-88
2021/03/17 00:52:15;51355.00;0.17;89.53;0.00;0.00;0.62;;;;;12.70;1.00;;;;;;2268715;61;2002;-88
2021/03/17 00:54:42;65033.00;0.22;113.18;0.00;0.00;0.62;;;;;12.40;1.00;;;;;;2268754;61;1932;-88
2021/03/17 00:57:08;43088.00;0.14;75.23;0.00;0.00;0.62;;;;;12.30;1.00;;;;;;2268717;61;1611;-88
2021/03/17 00:59:35;97908.00;0.33;169.96;0.00;0.00;0.62;;;;;11.60;1.00;;;;;;2260163;61;1089;-88
2021/03/17 01:02:01;79675.00;0.27;138.48;0.00;0.00;0.62;;;;;11.30;1.00;;;;;;2253594;61;1267;-88
2021/03/17 01:04:29;60526.00;0.20;105.39;0.00;0.00;0.62;;;;;11.30;1.00;;;;;;2260202;61;1099;-86
2021/03/17 01:06:58;210036.00;0.70;363.20;0.00;0.00;0.62;;;;;11.20;1.00;;;;;;2256159;61;1040;-88
2021/03/17 01:09:25;108398.00;0.36;188.07;0.00;0.00;0.62;;;;;11.20;1.00;;;;;;2256219;61;1079;-88
2021/03/17 01:11:53;117883.00;0.39;204.43;0.00;0.00;0.62;;;;;11.10;1.00;;;;;;2256070;61;1936;-85
2021/03/17 01:14:20;118746.00;0.40;205.92;0.00;0.00;0.62;;;;;11.20;1.00;;;;;;2256119;61;1149;-88
2021/03/17 01:16:46;87195.00;0.29;151.46;0.00;0.00;0.62;;;;;11.30;1.00;;;;;;2256726;61;1135;-88
2021/03/17 01:19:13;147827.00;0.49;256.06;0.00;0.00;0.62;;;;;11.00;1.00;;;;;;2260139;61;1150;-87
2021/03/17 01:21:39;139217.00;0.46;241.22;0.00;0.00;0.62;;;;;10.80;1.00;;;;;;2260131;61;1294;-87
2021/03/17 01:24:08;155846.00;0.52;269.88;0.00;0.00;0.62;;;;;10.70;1.00;;;;;;2261435;61;1145;-87
2021/03/17 01:26:34;141662.00;0.47;245.44;0.00;0.00;0.62;;;;;10.30;1.00;;;;;;2268602;61;1622;-87
2021/03/17 01:29:01;120398.00;0.40;208.77;0.00;0.00;0.62;;;;;10.20;1.00;;;;;;2268663;61;871;-87
2021/03/17 01:31:27;360128.00;1.20;621.27;58281.00;0.19;101.51;;;;;10.50;1.00;;;;;;2268521;61;2014;-88
2021/03/17 01:33:54;132644.00;0.44;229.89;0.00;0.00;0.62;;;;;10.80;1.00;;;;;;2268560;61;1536;-88
2021/03/17 01:36:20;95058.00;0.32;165.04;0.00;0.00;0.62;;;;;11.10;1.00;;;;;;2268591;61;1024;-88
2021/03/17 01:38:47;99002.00;0.33;171.85;0.00;0.00;0.62;;;;;11.40;1.00;;;;;;2268613;61;1001;-88
2021/03/17 01:41:14;131998.00;0.44;228.77;0.00;0.00;0.62;;;;;11.60;1.00;;;;;;2268615;61;1386;-88
2021/03/17 01:43:40;50744.00;0.17;88.47;0.00;0.00;0.62;;;;;11.70;1.00;;;;;;2268578;61;1119;-87
2021/03/17 01:46:07;156679.00;0.52;271.32;0.00;0.00;0.62;;;;;12.00;1.00;;;;;;2268573;61;1568;-88
2021/03/17 01:48:33;87017.00;0.29;151.16;0.00;0.00;0.62;;;;;12.50;1.00;;;;;;2268610;61;1052;-88
2021/03/17 01:51:01;87112.00;0.29;151.32;0.00;0.00;0.62;;;;;12.50;1.00;;;;;;2268536;61;1996;-88
2021/03/17 01:53:29;189577.00;0.63;327.98;0.00;0.00;0.62;;;;;12.80;1.00;;;;;;2268549;61;1305;-89
2021/03/17 01:55:56;70276.00;0.23;122.24;0.00;0.00;0.62;;;;;12.90;1.00;;;;;;2268551;61;1646;-87
2021/03/17 01:58:24;100474.00;0.33;174.39;0.00;0.00;0.62;;;;;13.00;1.00;;;;;;2268461;61;1119;-88
2021/03/17 02:00:52;82670.00;0.28;143.65;0.00;0.00;0.62;;;;;12.90;1.00;;;;;;2268573;61;916;-88
2021/03/17 02:03:18;144170.00;0.48;249.76;0.00;0.00;0.62;;;;;12.90;1.00;;;;;;2268543;61;1412;-88
2021/03/17 02:05:46;138993.00;0.46;240.83;0.00;0.00;0.62;;;;;11.80;1.00;;;;;;2268468;61;1056;-85
2021/03/17 02:08:15;125389.00;0.42;217.38;0.00;0.00;0.62;;;;;10.90;1.00;;;;;;2268568;61;1084;-85
2021/03/17 02:10:42;147604.00;0.49;255.68;0.00;0.00;0.62;;;;;10.50;1.00;;;;;;2268473;61;1128;-86
2021/03/17 02:13:56;172484.00;0.57;298.55;0.00;0.00;0.62;;;;;10.10;1.00;;;;;;2261510;61;1941;-85
2021/03/17 02:16:29;111933.00;0.37;194.17;0.00;0.00;0.62;;;;;9.90;1.00;;;;;;2240072;62;1039;-85
2021/03/17 02:19:28;102906.00;0.34;178.59;0.00;0.00;0.62;;;;;10.20;1.00;;;;;;2236849;62;1093;-87
2021/03/17 02:22:36;396395.00;1.32;683.61;82015.00;0.27;142.52;;;;;10.30;1.00;;;;;;2236816;62;1286;-86
2021/03/17 02:25:13;424701.00;1.42;732.27;84682.00;0.28;147.12;;;;;11.30;1.00;;;;;;2228266;62;1032;-85
2021/03/17 02:28:18;453607.00;1.51;781.99;81152.00;0.27;141.03;;;;;11.60;1.00;;;;;;2228264;62;994;-86
2021/03/17 02:31:06;548796.00;1.83;945.88;98602.00;0.33;171.16;;;;;12.00;1.00;;;;;;2216580;62;1046;-87
2021/03/17 02:33:45;336404.00;1.12;580.49;0.00;0.00;0.62;;;;;12.30;1.00;;;;;;2216131;62;1021;-86
2021/03/17 02:36:14;545357.00;1.82;939.96;113527.00;0.38;196.92;;;;;12.30;1.00;;;;;;2212849;62;1136;-87
2021/03/17 02:38:46;332373.00;1.11;573.56;79937.00;0.27;138.93;;;;;12.50;1.00;;;;;;2212913;62;1102;-86
2021/03/17 02:41:20;382221.00;1.27;659.24;87874.00;0.29;152.64;;;;;12.80;1.00;;;;;;2212822;62;1310;-87
2021/03/17 02:43:51;448849.00;1.50;773.80;80870.00;0.27;140.54;;;;;12.80;1.00;;;;;;2212844;62;1183;-87
2021/03/17 02:46:20;433416.00;1.44;747.26;83943.00;0.28;145.85;;;;;12.50;1.00;;;;;;2212701;62;1001;-87
2021/03/17 02:48:55;484189.00;1.61;834.61;89358.00;0.30;155.20;;;;;12.60;1.00;;;;;;2216739;62;1109;-87
2021/03/17 02:51:31;548974.00;1.83;946.19;75934.00;0.25;132.01;;;;;12.90;1.00;;;;;;2231254;62;2005;-88
2021/03/17 02:54:01;520914.00;1.74;897.84;0.00;0.00;0.62;;;;;12.80;1.00;;;;;;2235760;62;1156;-87
2021/03/17 02:56:33;477592.00;1.59;823.25;21771.00;0.07;38.34;;;;;12.70;1.00;;;;;;2236130;62;1123;-86
2021/03/17 02:59:02;273460.00;0.91;472.29;0.00;0.00;0.62;;;;;12.70;1.00;;;;;;2236081;62;1046;-87
2021/03/17 03:01:31;317180.00;1.06;547.45;0.00;0.00;0.62;;;;;12.70;1.00;;;;;;2240464;61;1437;-87
2021/03/17 03:04:00;635651.00;2.12;1095.82;77064.00;0.26;133.97;;;;;13.10;1.00;;;;;;2255627;61;1555;-87
2021/03/17 03:06:30;512884.00;1.71;884.01;86486.00;0.29;150.24;;;;;13.30;1.00;;;;;;2259901;61;1103;-87
2021/03/17 03:08:57;248482.00;0.83;429.34;0.00;0.00;0.62;;;;;13.30;1.00;;;;;;2268260;61;1062;-87
2021/03/17 03:11:24;216820.00;0.72;374.87;0.00;0.00;0.62;;;;;13.20;1.00;;;;;;2268085;61;2000;-86
2021/03/17 03:13:52;477136.00;1.59;822.47;80190.00;0.27;139.37;;;;;13.10;1.00;;;;;;2261268;61;1102;-87
2021/03/17 03:16:19;385245.00;1.28;664.44;85201.00;0.28;148.02;;;;;12.30;1.00;;;;;;2268262;61;1027;-87
2021/03/17 03:18:49;485354.00;1.62;836.61;85412.00;0.28;148.38;;;;;11.70;1.00;;;;;;2268311;61;1123;-87
2021/03/17 03:21:18;395772.00;1.32;682.54;86813.00;0.29;150.80;;;;;11.40;1.00;;;;;;2268254;61;1427;-87
2021/03/17 03:23:47;500826.00;1.67;863.25;68130.00;0.23;118.53;;;;;11.20;1.00;;;;;;2268267;61;1114;-87
2021/03/17 03:26:14;625598.00;2.09;1078.44;76340.00;0.25;132.71;;;;;10.70;1.00;;;;;;2268265;61;1068;-87
2021/03/17 03:28:41;611254.00;2.04;1053.66;79123.00;0.26;137.52;;;;;10.40;1.00;;;;;;2268231;61;1090;-88
2021/03/17 03:31:09;603027.00;2.01;1039.45;82457.00;0.27;143.28;;;;;10.10;1.00;;;;;;2267899;61;2000;-86
2021/03/17 03:33:35;612725.00;2.04;1056.20;112497.00;0.37;195.14;;;;;10.60;1.00;;;;;;2268260;61;1109;-87
2021/03/17 03:36:02;584510.00;1.95;1007.48;79938.00;0.27;138.93;;;;;11.00;1.00;;;;;;2268243;61;1034;-87
2021/03/17 03:38:29;530828.00;1.77;914.92;83416.00;0.28;144.94;;;;;11.00;1.00;;;;;;2268190;61;1077;-88
2021/03/17 03:40:56;410141.00;1.37;707.24;82788.00;0.28;143.85;;;;;10.60;1.00;;;;;;2268155;61;1162;-86
2021/03/17 03:43:23;534433.00;1.78;921.13;69294.00;0.23;120.54;;;;;10.90;1.00;;;;;;2268176;61;1313;-87
2021/03/17 03:45:50;548564.00;1.83;945.48;59514.00;0.20;103.64;;;;;11.50;1.00;;;;;;2267704;61;1028;-86
2021/03/17 03:48:18;520423.00;1.73;896.99;76630.00;0.26;133.22;;;;;11.80;1.00;;;;;;2268240;61;914;-87
2021/03/17 03:50:48;491204.00;1.64;846.68;74753.00;0.25;129.97;;;;;12.00;1.00;;;;;;2268182;61;996;-88
2021/03/17 03:53:24;528579.00;1.76;911.04;73881.00;0.25;128.47;;;;;12.40;1.00;;;;;;2268162;61;2030;-87
2021/03/17 03:55:55;327012.00;1.09;564.35;0.00;0.00;0.62;;;;;12.10;1.00;;;;;;2268116;61;1709;-87
2021/03/17 03:58:30;310570.00;1.04;536.09;0.00;0.00;0.62;;;;;11.90;1.00;;;;;;2268187;61;1030;-87
2021/03/17 04:01:05;326027.00;1.09;562.66;0.00;0.00;0.62;;;;;11.70;1.00;;;;;;2268155;61;1142;-87
2021/03/17 04:03:35;338498.00;1.13;584.09;0.00;0.00;0.62;;;;;12.00;1.00;;;;;;2268162;61;1046;-86
2021/03/17 04:06:03;251482.00;0.84;434.50;0.00;0.00;0.62;;;;;12.50;1.00;;;;;;2268039;61;1013;-87
2021/03/17 04:08:31;382218.00;1.27;659.24;0.00;0.00;0.62;;;;;12.70;1.00;;;;;;2268132;61;1063;-88
2021/03/17 04:11:01;348389.00;1.16;601.09;0.00;0.00;0.62;;;;;12.70;1.00;;;;;;2268135;61;1055;-88
2021/03/17 04:13:32;295546.00;0.99;510.26;0.00;0.00;0.62;;;;;12.80;1.00;;;;;;2268139;61;1939;-87
2021/03/17 04:15:59;329442.00;1.10;568.53;0.00;0.00;0.62;;;;;12.20;1.00;;;;;;2268031;61;1142;-87
2021/03/17 04:18:29;412669.00;1.38;711.59;0.00;0.00;0.62;;;;;12.10;1.00;;;;;;2268049;61;1635;-88
2021/03/17 04:20:59;369416.00;1.23;637.23;0.00;0.00;0.62;;;;;12.10;1.00;;;;;;2268240;61;1124;-87
2021/03/17 04:23:28;400666.00;1.34;690.95;0.00;0.00;0.62;;;;;12.40;1.00;;;;;;2268834;61;1350;-87
2021/03/17 04:25:55;436056.00;1.45;751.80;0.00;0.00;0.62;;;;;12.40;1.00;;;;;;2268807;61;1563;-87
2021/03/17 04:28:26;261126.00;0.87;451.08;0.00;0.00;0.62;;;;;12.60;1.00;;;;;;2268832;61;931;-87
2021/03/17 04:30:57;294565.00;0.98;508.58;0.00;0.00;0.62;;;;;12.40;1.00;;;;;;2268813;61;1186;-88
2021/03/17 04:33:24;293102.00;0.98;506.06;0.00;0.00;0.62;;;;;12.40;1.00;;;;;;2268741;61;1928;-87
2021/03/17 04:35:56;294974.00;0.98;509.28;0.00;0.00;0.62;;;;;12.50;1.00;;;;;;2268801;61;1312;-87
2021/03/17 04:38:25;371024.00;1.24;640.00;0.00;0.00;0.62;;;;;12.80;1.00;;;;;;2268797;61;1099;-87
2021/03/17 04:40:54;314410.00;1.05;542.69;0.00;0.00;0.62;;;;;13.10;1.00;;;;;;2268705;61;1049;-87
2021/03/17 04:43:22;275684.00;0.92;476.12;0.00;0.00;0.62;;;;;13.30;1.00;;;;;;2268737;61;1433;-87
2021/03/17 04:45:50;281405.00;0.94;485.95;0.00;0.00;0.62;;;;;13.30;1.00;;;;;;2268749;61;1108;-88
2021/03/17 04:48:17;364172.00;1.21;628.22;0.00;0.00;0.62;;;;;13.20;1.00;;;;;;2268692;61;1051;-87
2021/03/17 04:50:47;239704.00;0.80;414.24;0.00;0.00;0.62;;;;;13.00;1.00;;;;;;2268692;61;1044;-87
2021/03/17 04:53:14;358714.00;1.20;618.84;0.00;0.00;0.62;;;;;13.10;1.00;;;;;;2268635;61;2021;-87
2021/03/17 04:55:41;384659.00;1.28;663.43;0.00;0.00;0.62;;;;;13.10;1.00;;;;;;2260098;61;993;-87
2021/03/17 04:58:10;557341.00;1.86;960.62;0.00;0.00;0.62;;;;;13.00;1.00;;;;;;2260088;61;1543;-88
2021/03/17 05:00:40;268093.00;0.89;463.06;0.00;0.00;0.62;;;;;13.00;1.00;;;;;;2260093;61;1080;-88
2021/03/17 05:03:11;305784.00;1.02;527.86;0.00;0.00;0.62;;;;;13.00;1.00;;;;;;2260155;61;1347;-87
2021/03/17 05:05:39;170371.00;0.57;294.91;0.00;0.00;0.62;;;;;13.00;1.00;;;;;;2260076;61;1070;-87
2021/03/17 05:08:08;238233.00;0.79;411.71;0.00;0.00;0.62;;;;;12.90;1.00;;;;;;2256083;61;989;-87
2021/03/17 05:10:37;294025.00;0.98;507.65;0.00;0.00;0.62;;;;;13.00;1.00;;;;;;2256190;61;1305;-87
2021/03/17 05:13:09;158162.00;0.53;273.87;0.00;0.00;0.62;;;;;13.00;1.00;;;;;;2256989;61;2009;-88
2021/03/17 05:15:36;121325600.00;404.42;72347720.00;0.00;0.00;0.62;;;;;13.10;1.00;;;;;;2260212;61;1021;-87
2021/03/17 05:18:05;165122.00;0.55;285.86;0.00;0.00;0.62;;;;;13.10;1.00;;;;;;2259924;61;973;-87
2021/03/17 05:20:33;180726.00;0.60;312.74;0.00;0.00;0.62;;;;;13.00;1.00;;;;;;2260138;61;1119;-87
2021/03/17 05:23:01;150047.00;0.50;259.89;0.00;0.00;0.62;;;;;13.10;1.00;;;;;;2259831;61;1474;-87
2021/03/17 05:25:28;388000.00;1.29;669.18;0.00;0.00;0.62;;;;;13.10;1.00;;;;;;2261767;61;1121;-88
2021/03/17 05:28:03;542615.00;1.81;935.23;60459.00;0.20;105.27;;;;;13.20;1.00;;;;;;2268527;61;1028;-88
2021/03/17 05:30:32;71408.00;0.24;124.19;0.00;0.00;0.62;;;;;13.30;1.00;;;;;;2268412;61;1003;-87
2021/03/17 05:33:01;80918.00;0.27;140.62;0.00;0.00;0.62;;;;;13.30;1.00;;;;;;2268358;61;2008;-88
2021/03/17 05:35:29;133210.00;0.44;230.86;0.00;0.00;0.62;;;;;13.00;1.00;;;;;;2261292;61;1013;-88
2021/03/17 05:37:55;51739.00;0.17;90.19;0.00;0.00;0.62;;;;;13.10;1.00;;;;;;2268364;61;999;-88
2021/03/17 05:40:22;79048.00;0.26;137.39;0.00;0.00;0.62;;;;;13.30;1.00;;;;;;2261114;61;1022;-88
2021/03/17 05:42:49;93709.00;0.31;162.71;0.00;0.00;0.62;;;;;13.10;1.00;;;;;;2267905;61;1290;-88
2021/03/17 05:45:17;47971.00;0.16;83.68;0.00;0.00;0.62;;;;;12.80;1.00;;;;;;2268625;61;948;-87
2021/03/17 05:47:45;92859.00;0.31;161.24;0.00;0.00;0.62;;;;;12.20;1.00;;;;;;2268568;61;1121;-87
2021/03/17 05:50:15;120042.00;0.40;208.15;0.00;0.00;0.62;;;;;12.10;1.00;;;;;;2268613;61;928;-87
2021/03/17 05:52:42;79863.00;0.27;138.80;0.00;0.00;0.62;;;;;11.70;1.00;;;;;;2268512;61;2001;-88
2021/03/17 05:55:11;120837.00;0.40;209.53;0.00;0.00;0.62;;;;;11.40;1.00;;;;;;2268533;61;1150;-87
2021/03/17 05:57:38;306746.00;1.02;529.52;82564.00;0.28;143.47;;;;;10.90;1.00;;;;;;2268530;61;1120;-87
2021/03/17 06:00:07;82260.00;0.27;142.94;0.00;0.00;0.62;;;;;10.60;1.00;;;;;;2268584;61;1036;-87
2021/03/17 06:02:34;345419.00;1.15;595.99;81347.00;0.27;141.36;;;;;10.70;1.00;;;;;;2268041;61;1530;-88
2021/03/17 06:05:03;100681.00;0.34;174.75;0.00;0.00;0.62;;;;;10.40;1.00;;;;;;2268409;61;1128;-88
2021/03/17 06:07:41;97858.00;0.33;169.87;0.00;0.00;0.62;;;;;10.00;1.00;;;;;;2268000;61;1044;-87
2021/03/17 06:10:09;68743.00;0.23;119.59;0.00;0.00;0.62;;;;;10.00;1.00;;;;;;2268532;61;1039;-88
2021/03/17 06:12:37;99644.00;0.33;172.96;0.00;0.00;0.62;;;;;10.30;1.00;;;;;;2268411;61;1929;-88
2021/03/17 06:15:05;82490.00;0.27;143.34;0.00;0.00;0.62;;;;;10.70;1.00;;;;;;2268413;61;1023;-88
2021/03/17 06:17:35;60118.00;0.20;104.68;0.00;0.00;0.62;;;;;11.30;1.00;;;;;;2261472;61;961;-86
2021/03/17 06:20:05;52344.00;0.17;91.24;0.00;0.00;0.62;;;;;11.60;1.00;;;;;;2268462;61;1033;-88
2021/03/17 06:22:33;94887.00;0.32;164.75;0.00;0.00;0.62;;;;;12.10;1.00;;;;;;2268131;61;1455;-88
2021/03/17 06:25:03;105244.00;0.35;182.62;0.00;0.00;0.62;;;;;12.50;1.00;;;;;;2268044;61;1024;-87
2021/03/17 06:27:31;36119.00;0.12;63.17;0.00;0.00;0.62;;;;;12.30;1.00;;;;;;2268455;61;1130;-87
2021/03/17 06:29:58;62189.00;0.21;108.26;0.00;0.00;0.62;;;;;12.30;1.00;;;;;;2268292;61;1561;-88
2021/03/17 06:32:25;62089.00;0.21;108.09;0.00;0.00;0.62;;;;;12.00;1.00;;;;;;2268338;61;1917;-89
2021/03/17 06:34:52;138752.00;0.46;240.42;0.00;0.00;0.62;;;;;12.40;1.00;;;;;;2268303;61;969;-88
2021/03/17 06:37:33;259100.00;0.86;447.60;0.00;0.00;0.62;;;;;12.50;1.00;;;;;;2268335;61;1770;-88
2021/03/17 06:40:00;156388.00;0.52;270.82;0.00;0.00;0.62;;;;;12.70;1.00;;;;;;2268318;61;1026;-87
2021/03/17 06:42:40;112235.00;0.37;194.69;0.00;0.00;0.62;;;;;13.20;1.00;;;;;;2268079;61;1448;-89
2021/03/17 06:45:08;92941.00;0.31;161.39;0.00;0.00;0.62;;;;;13.30;1.00;;;;;;2268413;61;925;-90
2021/03/17 06:47:34;98919.00;0.33;171.71;0.00;0.00;0.62;;;;;13.00;1.00;;;;;;2257960;61;989;-90
2021/03/17 06:50:08;128415.00;0.43;222.60;0.00;0.00;0.62;;;;;13.00;1.00;;;;;;2268291;61;1061;-89
2021/03/17 06:52:37;35721.00;0.12;62.48;0.00;0.00;0.62;;;;;13.20;1.00;;;;;;2261203;61;1911;-91
2021/03/17 06:55:05;45428.00;0.15;79.28;0.00;0.00;0.62;;;;;13.40;1.00;;;;;;2261300;61;997;-90
2021/03/17 06:57:32;202150.00;0.67;349.62;0.00;0.00;0.62;;;;;13.20;1.00;;;;;;2255850;61;929;-89
2021/03/17 07:00:24;210897.00;0.70;364.68;0.00;0.00;0.62;;;;;13.00;1.00;;;;;;2249302;61;1011;-90
2021/03/17 07:02:54;131922.00;0.44;228.64;0.00;0.00;0.62;;;;;13.10;1.00;;;;;;2251812;61;1426;-89
2021/03/17 07:05:21;224957.00;0.75;388.87;0.00;0.00;0.62;;;;;13.30;1.00;;;;;;2245206;61;1006;-89
2021/03/17 07:07:50;247430.00;0.82;427.53;0.00;0.00;0.62;;;;;13.00;1.00;;;;;;2251952;61;1204;-90
2021/03/17 07:10:27;530429.00;1.77;914.23;55830.00;0.19;97.27;;;;;13.10;1.00;;;;;;2248497;61;1061;-88
2021/03/17 07:12:55;496569.00;1.66;855.92;0.00;0.00;0.62;;;;;13.00;1.00;;;;;;2251906;61;1998;-86
2021/03/17 07:15:23;315706.00;1.05;544.92;0.00;0.00;0.62;;;;;13.00;1.00;;;;;;2250952;61;1043;-88
2021/03/17 07:18:10;490609.00;1.64;845.66;0.00;0.00;0.62;;;;;13.00;1.00;;;;;;2259817;61;1026;-88
2021/03/17 07:20:39;241002.00;0.80;416.47;69044.00;0.23;120.11;;;;;13.00;1.00;;;;;;2261665;61;947;-89
2021/03/17 07:23:28;533082.00;1.78;918.80;46688.00;0.16;81.46;;;;;12.70;1.00;;;;;;2251636;61;1283;-88
2021/03/17 07:26:16;270026.00;0.90;466.39;0.00;0.00;0.62;;;;;11.80;1.00;;;;;;2245273;61;1010;-89
2021/03/17 07:29:07;212452.00;0.71;367.36;0.00;0.00;0.62;;;;;11.40;1.00;;;;;;2243854;61;964;-88
2021/03/17 07:31:36;176449.00;0.59;305.37;0.00;0.00;0.62;;;;;11.00;1.00;;;;;;2243691;61;2009;-88
2021/03/17 07:34:15;221560.00;0.74;383.03;0.00;0.00;0.62;;;;;9.60;1.00;;;;;;2237180;61;942;-88
2021/03/17 07:36:46;156011.00;0.52;270.17;0.00;0.00;0.62;;;;;7.80;1.00;;;;;;2243739;61;1041;-88
2021/03/17 07:39:17;146483.00;0.49;253.75;0.00;0.00;0.62;;;;;7.50;1.00;;;;;;2243600;61;1089;-88
2021/03/17 07:49:48;1302502.00;4.34;2276.69;0.00;0.00;0.62;;;;;6.60;1.00;;;;;;2281691;60;1165;-89
2021/03/17 13:55:13;381017.00;1.27;657.17;16503.00;0.06;29.21;;;;;7.50;1.00;;;;;;2282123;60;1255;-86
2021/03/17 13:57:42;289395.00;0.96;499.69;0.00;0.00;0.62;;;;;7.70;1.00;;;;;;2280634;60;1053;-87
2021/03/17 14:00:11;199944.00;0.67;345.83;0.00;0.00;0.62;;;;;7.90;1.00;;;;;;2276008;61;1010;-88
2021/03/17 14:02:38;444281.00;1.48;765.95;0.00;0.00;0.62;;;;;8.70;1.00;;;;;;2275911;61;1621;-86
2021/03/17 14:05:06;210137.00;0.70;363.37;0.00;0.00;0.62;;;;;8.30;1.00;;;;;;2276051;61;1099;-86
2021/03/17 14:07:33;219975.00;0.73;380.30;0.00;0.00;0.62;;;;;8.30;1.00;;;;;;2276043;61;974;-89
2021/03/17 14:09:59;413524.00;1.38;713.06;0.00;0.00;0.62;;;;;8.20;1.00;;;;;;2275824;61;1548;-87
2021/03/17 14:12:27;322876.00;1.08;557.24;0.00;0.00;0.62;;;;;7.70;1.00;;;;;;2275834;61;1922;-87
2021/03/17 14:14:53;299665.00;1.00;517.34;0.00;0.00;0.62;;;;;8.20;1.00;;;;;;2275874;61;1716;-88
2021/03/17 14:17:20;411969.00;1.37;710.38;16771.00;0.06;29.68;;;;;8.70;1.00;;;;;;2276635;60;1561;-87
2021/03/17 14:19:46;300508.00;1.00;518.79;0.00;0.00;0.62;;;;;8.50;1.00;;;;;;2280407;60;1708;-88
2021/03/17 14:22:13;272176.00;0.91;470.09;0.00;0.00;0.62;;;;;8.90;1.00;;;;;;2280495;60;1394;-88
2021/03/17 14:24:39;267716.00;0.89;462.42;0.00;0.00;0.62;;;;;8.80;1.00;;;;;;2280517;60;1172;-88
2021/03/17 14:27:06;500287.00;1.67;862.32;0.00;0.00;0.62;;;;;8.60;1.00;;;;;;2280508;60;914;-89
2021/03/17 14:29:33;319344.00;1.06;551.17;0.00;0.00;0.62;;;;;8.70;1.00;;;;;;2280448;60;933;-88
2021/03/17 14:32:00;194518.00;0.65;336.49;0.00;0.00;0.62;;;;;9.30;1.00;;;;;;2280409;60;1921;-88
2021/03/17 14:34:26;429478.00;1.43;740.49;0.00;0.00;0.62;;;;;9.10;1.00;;;;;;2280393;60;1691;-88
2021/03/17 14:36:53;313217.00;1.04;540.64;0.00;0.00;0.62;;;;;9.50;1.00;;;;;;2280425;60;1612;-89
2021/03/17 14:39:19;274537.00;0.92;474.14;443.00;0.00;1.39;;;;;9.90;1.00;;;;;;2271916;61;1073;-88
2021/03/17 14:41:46;361952.00;1.21;624.40;0.00;0.00;0.62;;;;;10.10;1.00;;;;;;2271847;61;1293;-88
2021/03/17 14:44:12;263472.00;0.88;455.12;0.00;0.00;0.62;;;;;10.00;1.00;;;;;;2267661;61;1041;-89
2021/03/17 14:46:40;384365.00;1.28;662.93;0.00;0.00;0.62;;;;;10.40;1.00;;;;;;2267690;61;1049;-89
2021/03/17 14:49:07;219984.00;0.73;380.32;0.00;0.00;0.62;;;;;10.50;1.00;;;;;;2264442;61;1800;-89
2021/03/17 14:51:33;250144.00;0.83;432.20;0.00;0.00;0.62;;;;;10.70;1.00;;;;;;2267750;61;1405;-88
2021/03/17 14:54:00;182552.00;0.61;315.88;0.00;0.00;0.62;;;;;10.80;1.00;;;;;;2267579;61;2009;-88
2021/03/17 14:56:26;276457.00;0.92;477.45;0.00;0.00;0.62;;;;;10.60;1.00;;;;;;2268618;61;1118;-89
2021/03/17 14:58:53;185169.00;0.62;320.39;0.00;0.00;0.62;;;;;10.30;1.00;;;;;;2275840;61;1021;-88
2021/03/17 15:01:19;205357.00;0.68;355.14;0.00;0.00;0.62;;;;;10.40;1.00;;;;;;2276294;60;1360;-89
2021/03/17 15:03:47;184930.00;0.62;319.98;0.00;0.00;0.62;;;;;11.00;1.00;;;;;;2280298;60;1004;-89
2021/03/17 15:06:13;189590.00;0.63;328.00;0.00;0.00;0.62;;;;;11.30;1.00;;;;;;2280370;60;933;-88
2021/03/17 15:16:19;291495.00;0.97;503.30;0.00;0.00;0.62;;;;;10.50;1.00;;;;;;2281966;60;1289;-89
2021/03/17 15:18:46;161160.00;0.54;279.04;0.00;0.00;0.62;;;;;10.40;1.00;;;;;;2280259;60;1529;-88
2021/03/17 15:21:13;189185.00;0.63;327.31;0.00;0.00;0.62;;;;;10.40;1.00;;;;;;2280285;60;1280;-89
2021/03/17 15:23:39;130680.00;0.44;226.50;0.00;0.00;0.62;;;;;11.10;1.00;;;;;;2277201;60;1061;-89
2021/03/17 15:26:06;250352.00;0.83;432.56;0.00;0.00;0.62;;;;;11.30;1.00;;;;;;2284414;60;1066;-88
2021/03/17 15:28:33;330525.00;1.10;570.39;0.00;0.00;0.62;;;;;11.20;1.00;;;;;;2284339;60;1039;-88
2021/03/17 15:30:59;80155.00;0.27;139.31;0.00;0.00;0.62;;;;;10.90;1.00;;;;;;2283886;60;1647;-88
2021/03/17 15:33:26;264298.00;0.88;456.54;0.00;0.00;0.62;;;;;11.10;1.00;;;;;;2284285;60;1939;-89
2021/03/17 15:35:53;132701.00;0.44;229.99;0.00;0.00;0.62;;;;;11.60;1.00;;;;;;2284400;60;1037;-87
2021/03/17 15:38:20;326280.00;1.09;563.09;0.00;0.00;0.62;;;;;12.10;1.00;;;;;;2284213;60;1580;-89
2021/03/17 15:40:46;322893.00;1.08;557.27;0.00;0.00;0.62;;;;;12.20;1.00;;;;;;2284252;60;1162;-88
2021/03/17 15:43:13;169129.00;0.56;292.77;0.00;0.00;0.62;;;;;12.10;1.00;;;;;;2284312;60;1286;-89
2021/03/17 15:45:39;106991.00;0.36;185.64;0.00;0.00;0.62;;;;;12.30;1.00;;;;;;2284344;60;1087;-88
2021/03/17 15:48:06;192042.00;0.64;332.22;0.00;0.00;0.62;;;;;11.80;1.00;;;;;;2284359;60;915;-88
2021/03/17 15:50:37;353567.00;1.18;609.99;0.00;0.00;0.62;;;;;11.60;1.00;;;;;;2284256;60;1026;-88
2021/03/17 15:53:05;212521.00;0.71;367.47;0.00;0.00;0.62;;;;;11.80;1.00;;;;;;2283949;60;2001;-88
2021/03/17 15:55:32;135785.00;0.45;235.30;0.00;0.00;0.62;;;;;12.40;1.00;;;;;;2284344;60;933;-88
2021/03/17 15:57:58;160489.00;0.53;277.88;0.00;0.00;0.62;;;;;12.20;1.00;;;;;;2284236;60;1814;-88
2021/03/17 16:00:27;149784.00;0.50;259.44;0.00;0.00;0.62;;;;;11.50;1.00;;;;;;2284322;60;981;-87
2021/03/17 16:02:53;171837.00;0.57;297.43;0.00;0.00;0.62;;;;;10.90;1.00;;;;;;2284206;60;1375;-87
2021/03/17 16:05:20;567599.00;1.89;978.31;38354.00;0.13;67.04;;;;;8.30;1.00;;;;;;2284190;60;1018;-86
2021/03/17 16:07:47;282391.00;0.94;487.65;0.00;0.00;0.62;;;;;6.70;1.00;;;;;;2284092;60;1277;-86
2021/03/17 16:10:16;259848.00;0.87;448.89;0.00;0.00;0.62;;;;;6.00;1.00;;;;;;2284189;60;926;-87
2021/03/17 16:12:44;227796.00;0.76;393.76;0.00;0.00;0.62;;;;;5.70;1.00;;;;;;2284061;60;2008;-88
2021/03/17 16:15:12;309236.00;1.03;533.80;0.00;0.00;0.62;;;;;6.00;1.00;;;;;;2283991;60;1061;-86
2021/03/17 16:17:40;119413248.00;398.04;68977264.00;0.00;0.00;0.62;;;;;5.90;1.00;;;;;;2284105;60;1047;-88
2021/03/17 16:20:10;346531.00;1.16;597.90;0.00;0.00;0.62;;;;;6.30;1.00;;;;;;2284259;60;927;-88
2021/03/17 16:22:37;434980.00;1.45;749.95;0.00;0.00;0.62;;;;;6.10;1.00;;;;;;2284022;60;1719;-87